sensor_id;sensor_type;location;lat;lon;timestamp;temperature;humidity
34776;DHT22;20989;52.566;13.346;2023-05-10T00:01:32;21.90;41.80
34776;DHT22;20989;52.566;13.346;2023-05-10T00:04:33;21.90;41.90
34776;DHT22;20989;52.566;13.346;2023-05-10T00:07:34;21.90;41.80
34776;DHT22;20989;52.566;13.346;2023-05-10T00:10:34;21.90;41.80
34776;DHT22;20989;52.566;13.346;2023-05-10T00:13:36;21.90;41.90
34776;DHT22;20989;52.566;13.346;2023-05-10T00:16:37;21.90;41.80
34776;DHT22;20989;52.566;13.346;2023-05-10T00:19:38;21.90;41.90
34776;DHT22;20989;52.566;13.346;2023-05-10T00:22:38;21.90;42.00
34776;DHT22;20989;52.566;13.346;2023-05-10T00:25:39;21.90;42.10
34776;DHT22;20989;52.566;13.346;2023-05-10T00:28:40;21.90;42.20
34776;DHT22;20989;52.566;13.346;2023-05-10T00:31:40;21.90;42.10
34776;DHT22;20989;52.566;13.346;2023-05-10T00:34:41;21.80;41.80
34776;DHT22;20989;52.566;13.346;2023-05-10T00:37:41;21.80;41.90
34776;DHT22;20989;52.566;13.346;2023-05-10T00:40:42;21.90;42.00
34776;DHT22;20989;52.566;13.346;2023-05-10T00:43:43;21.90;42.00
34776;DHT22;20989;52.566;13.346;2023-05-10T00:46:44;21.80;41.90
34776;DHT22;20989;52.566;13.346;2023-05-10T00:49:45;21.90;42.10
34776;DHT22;20989;52.566;13.346;2023-05-10T00:52:46;21.80;41.90
34776;DHT22;20989;52.566;13.346;2023-05-10T00:55:47;21.90;42.10
34776;DHT22;20989;52.566;13.346;2023-05-10T00:58:48;21.80;42.00
34776;DHT22;20989;52.566;13.346;2023-05-10T01:01:49;21.90;42.00
34776;DHT22;20989;52.566;13.346;2023-05-10T01:04:50;21.90;42.10
34776;DHT22;20989;52.566;13.346;2023-05-10T01:07:52;21.90;42.10
34776;DHT22;20989;52.566;13.346;2023-05-10T01:10:53;21.80;42.00
34776;DHT22;20989;52.566;13.346;2023-05-10T01:13:56;21.90;42.20
34776;DHT22;20989;52.566;13.346;2023-05-10T01:16:58;21.80;42.10
34776;DHT22;20989;52.566;13.346;2023-05-10T01:19:58;21.80;42.10
34776;DHT22;20989;52.566;13.346;2023-05-10T01:33:43;21.80;42.30
34776;DHT22;20989;52.566;13.346;2023-05-10T01:36:51;21.80;42.20
34776;DHT22;20989;52.566;13.346;2023-05-10T01:40:23;21.80;42.10
34776;DHT22;20989;52.566;13.346;2023-05-10T01:43:30;21.80;42.20
34776;DHT22;20989;52.566;13.346;2023-05-10T01:46:36;21.80;42.20
34776;DHT22;20989;52.566;13.346;2023-05-10T01:49:58;21.80;42.20
34776;DHT22;20989;52.566;13.346;2023-05-10T01:53:02;21.80;42.30
34776;DHT22;20989;52.566;13.346;2023-05-10T01:56:05;21.80;42.20
34776;DHT22;20989;52.566;13.346;2023-05-10T01:59:15;21.80;42.20
34776;DHT22;20989;52.566;13.346;2023-05-10T02:02:19;21.80;42.20
34776;DHT22;20989;52.566;13.346;2023-05-10T02:05:21;21.80;42.20
34776;DHT22;20989;52.566;13.346;2023-05-10T02:08:23;21.80;42.30
34776;DHT22;20989;52.566;13.346;2023-05-10T02:11:25;21.80;42.20
34776;DHT22;20989;52.566;13.346;2023-05-10T02:14:26;21.80;42.40
34776;DHT22;20989;52.566;13.346;2023-05-10T02:17:28;21.80;42.40
34776;DHT22;20989;52.566;13.346;2023-05-10T02:20:31;21.80;42.30
34776;DHT22;20989;52.566;13.346;2023-05-10T02:23:33;21.80;42.30
34776;DHT22;20989;52.566;13.346;2023-05-10T02:26:36;21.70;42.30
34776;DHT22;20989;52.566;13.346;2023-05-10T02:29:38;21.70;42.40
34776;DHT22;20989;52.566;13.346;2023-05-10T02:32:40;21.80;42.40
34776;DHT22;20989;52.566;13.346;2023-05-10T02:35:41;21.80;42.50
34776;DHT22;20989;52.566;13.346;2023-05-10T02:38:43;21.80;42.40
34776;DHT22;20989;52.566;13.346;2023-05-10T02:41:46;21.80;42.30
34776;DHT22;20989;52.566;13.346;2023-05-10T02:44:48;21.70;42.40
34776;DHT22;20989;52.566;13.346;2023-05-10T02:47:50;21.70;42.40
34776;DHT22;20989;52.566;13.346;2023-05-10T02:50:52;21.70;42.40
34776;DHT22;20989;52.566;13.346;2023-05-10T02:53:55;21.70;42.40
34776;DHT22;20989;52.566;13.346;2023-05-10T02:56:59;21.80;42.50
34776;DHT22;20989;52.566;13.346;2023-05-10T03:00:02;21.70;42.30
34776;DHT22;20989;52.566;13.346;2023-05-10T03:03:03;21.80;42.40
34776;DHT22;20989;52.566;13.346;2023-05-10T03:06:04;21.70;42.40
34776;DHT22;20989;52.566;13.346;2023-05-10T03:09:05;21.70;42.50
34776;DHT22;20989;52.566;13.346;2023-05-10T03:18:50;21.70;42.60
34776;DHT22;20989;52.566;13.346;2023-05-10T03:21:56;21.70;42.40
34776;DHT22;20989;52.566;13.346;2023-05-10T03:25:00;21.70;42.60
34776;DHT22;20989;52.566;13.346;2023-05-10T03:28:05;21.70;42.40
34776;DHT22;20989;52.566;13.346;2023-05-10T03:31:06;21.70;42.50
34776;DHT22;20989;52.566;13.346;2023-05-10T03:34:07;21.70;42.50
34776;DHT22;20989;52.566;13.346;2023-05-10T03:37:08;21.70;43.00
34776;DHT22;20989;52.566;13.346;2023-05-10T03:40:09;21.70;42.60
34776;DHT22;20989;52.566;13.346;2023-05-10T03:43:10;21.70;42.60
34776;DHT22;20989;52.566;13.346;2023-05-10T03:46:11;21.70;42.60
34776;DHT22;20989;52.566;13.346;2023-05-10T03:49:11;21.70;42.50
34776;DHT22;20989;52.566;13.346;2023-05-10T03:52:12;21.70;42.50
34776;DHT22;20989;52.566;13.346;2023-05-10T03:55:13;21.70;42.60
34776;DHT22;20989;52.566;13.346;2023-05-10T03:58:14;21.70;42.60
34776;DHT22;20989;52.566;13.346;2023-05-10T04:01:14;21.70;42.70
34776;DHT22;20989;52.566;13.346;2023-05-10T04:04:15;21.70;42.60
34776;DHT22;20989;52.566;13.346;2023-05-10T04:07:18;21.70;42.90
34776;DHT22;20989;52.566;13.346;2023-05-10T04:10:19;21.70;42.60
34776;DHT22;20989;52.566;13.346;2023-05-10T04:13:21;21.70;42.70
34776;DHT22;20989;52.566;13.346;2023-05-10T04:16:21;21.60;43.00
34776;DHT22;20989;52.566;13.346;2023-05-10T04:19:22;21.60;40.50
34776;DHT22;20989;52.566;13.346;2023-05-10T04:22:23;21.60;40.10
34776;DHT22;20989;52.566;13.346;2023-05-10T04:25:24;21.50;39.40
34776;DHT22;20989;52.566;13.346;2023-05-10T04:28:24;21.60;39.70
34776;DHT22;20989;52.566;13.346;2023-05-10T04:31:25;21.50;40.00
34776;DHT22;20989;52.566;13.346;2023-05-10T04:34:26;21.50;39.20
34776;DHT22;20989;52.566;13.346;2023-05-10T04:37:26;21.50;40.00
34776;DHT22;20989;52.566;13.346;2023-05-10T04:40:28;21.50;39.50
34776;DHT22;20989;52.566;13.346;2023-05-10T04:43:29;21.40;38.40
34776;DHT22;20989;52.566;13.346;2023-05-10T04:46:29;21.40;38.90
34776;DHT22;20989;52.566;13.346;2023-05-10T04:49:30;21.40;38.80
34776;DHT22;20989;52.566;13.346;2023-05-10T04:52:30;21.40;39.00
34776;DHT22;20989;52.566;13.346;2023-05-10T04:55:31;21.40;39.10
34776;DHT22;20989;52.566;13.346;2023-05-10T04:58:32;21.40;37.90
34776;DHT22;20989;52.566;13.346;2023-05-10T05:01:33;21.40;39.30
34776;DHT22;20989;52.566;13.346;2023-05-10T05:04:33;21.30;38.20
34776;DHT22;20989;52.566;13.346;2023-05-10T05:07:34;21.30;38.40
34776;DHT22;20989;52.566;13.346;2023-05-10T05:10:35;21.40;38.80
34776;DHT22;20989;52.566;13.346;2023-05-10T05:13:35;21.50;38.20
34776;DHT22;20989;52.566;13.346;2023-05-10T05:16:36;21.50;40.20
34776;DHT22;20989;52.566;13.346;2023-05-10T05:19:37;21.50;38.90
34776;DHT22;20989;52.566;13.346;2023-05-10T05:22:37;21.60;39.50
34776;DHT22;20989;52.566;13.346;2023-05-10T05:25:38;21.60;39.80
34776;DHT22;20989;52.566;13.346;2023-05-10T05:28:39;21.60;40.30
34776;DHT22;20989;52.566;13.346;2023-05-10T05:31:39;21.60;39.70
34776;DHT22;20989;52.566;13.346;2023-05-10T05:34:40;21.60;40.00
34776;DHT22;20989;52.566;13.346;2023-05-10T05:37:41;21.70;40.70
34776;DHT22;20989;52.566;13.346;2023-05-10T05:40:41;21.80;40.40
34776;DHT22;20989;52.566;13.346;2023-05-10T05:43:42;21.60;40.10
34776;DHT22;20989;52.566;13.346;2023-05-10T05:46:43;21.50;41.40
34776;DHT22;20989;52.566;13.346;2023-05-10T05:49:43;21.50;41.90
34776;DHT22;20989;52.566;13.346;2023-05-10T05:52:46;21.50;40.90
34776;DHT22;20989;52.566;13.346;2023-05-10T05:55:57;21.50;40.60
34776;DHT22;20989;52.566;13.346;2023-05-10T05:58:58;21.50;40.90
34776;DHT22;20989;52.566;13.346;2023-05-10T06:01:58;21.50;40.80
34776;DHT22;20989;52.566;13.346;2023-05-10T06:04:59;21.50;41.20
34776;DHT22;20989;52.566;13.346;2023-05-10T06:08:00;21.50;41.10
34776;DHT22;20989;52.566;13.346;2023-05-10T06:11:01;21.50;41.00
34776;DHT22;20989;52.566;13.346;2023-05-10T06:14:04;21.50;41.20
34776;DHT22;20989;52.566;13.346;2023-05-10T06:17:05;21.50;41.70
34776;DHT22;20989;52.566;13.346;2023-05-10T06:20:07;21.50;41.60
34776;DHT22;20989;52.566;13.346;2023-05-10T06:23:08;21.50;41.90
34776;DHT22;20989;52.566;13.346;2023-05-10T06:26:09;21.50;42.00
34776;DHT22;20989;52.566;13.346;2023-05-10T06:29:10;21.40;41.40
34776;DHT22;20989;52.566;13.346;2023-05-10T06:32:10;21.40;41.50
34776;DHT22;20989;52.566;13.346;2023-05-10T06:35:11;21.40;41.50
34776;DHT22;20989;52.566;13.346;2023-05-10T06:38:12;21.50;41.80
34776;DHT22;20989;52.566;13.346;2023-05-10T06:41:12;21.50;41.50
34776;DHT22;20989;52.566;13.346;2023-05-10T06:44:13;21.40;41.90
34776;DHT22;20989;52.566;13.346;2023-05-10T06:47:14;21.40;41.60
34776;DHT22;20989;52.566;13.346;2023-05-10T06:50:14;21.40;41.40
34776;DHT22;20989;52.566;13.346;2023-05-10T06:53:15;21.40;41.90
34776;DHT22;20989;52.566;13.346;2023-05-10T06:56:16;21.40;41.30
34776;DHT22;20989;52.566;13.346;2023-05-10T06:59:17;21.40;41.40
34776;DHT22;20989;52.566;13.346;2023-05-10T07:02:19;21.40;41.50
34776;DHT22;20989;52.566;13.346;2023-05-10T07:05:20;21.40;41.50
34776;DHT22;20989;52.566;13.346;2023-05-10T07:08:21;21.40;41.40
34776;DHT22;20989;52.566;13.346;2023-05-10T07:11:21;21.40;41.60
34776;DHT22;20989;52.566;13.346;2023-05-10T07:14:22;21.40;41.20
34776;DHT22;20989;52.566;13.346;2023-05-10T07:17:22;21.40;41.30
34776;DHT22;20989;52.566;13.346;2023-05-10T07:20:23;21.40;41.90
34776;DHT22;20989;52.566;13.346;2023-05-10T07:23:24;21.40;41.90
34776;DHT22;20989;52.566;13.346;2023-05-10T07:26:25;21.40;41.60
34776;DHT22;20989;52.566;13.346;2023-05-10T07:29:26;21.40;41.70
34776;DHT22;20989;52.566;13.346;2023-05-10T07:32:27;21.40;41.70
34776;DHT22;20989;52.566;13.346;2023-05-10T07:35:27;21.40;42.20
34776;DHT22;20989;52.566;13.346;2023-05-10T07:38:28;21.40;41.90
34776;DHT22;20989;52.566;13.346;2023-05-10T07:41:28;21.40;41.50
34776;DHT22;20989;52.566;13.346;2023-05-10T07:44:29;21.40;41.80
34776;DHT22;20989;52.566;13.346;2023-05-10T07:47:30;21.40;41.60
34776;DHT22;20989;52.566;13.346;2023-05-10T07:50:30;21.40;41.90
34776;DHT22;20989;52.566;13.346;2023-05-10T07:53:31;21.40;41.40
34776;DHT22;20989;52.566;13.346;2023-05-10T08:00:22;21.40;41.70
34776;DHT22;20989;52.566;13.346;2023-05-10T08:07:20;21.40;41.50
34776;DHT22;20989;52.566;13.346;2023-05-10T08:10:21;21.40;41.70
34776;DHT22;20989;52.566;13.346;2023-05-10T08:13:21;21.40;41.80
34776;DHT22;20989;52.566;13.346;2023-05-10T08:16:22;21.50;42.50
34776;DHT22;20989;52.566;13.346;2023-05-10T08:19:23;21.50;41.80
34776;DHT22;20989;52.566;13.346;2023-05-10T08:22:24;21.40;42.00
34776;DHT22;20989;52.566;13.346;2023-05-10T08:25:25;21.50;42.00
34776;DHT22;20989;52.566;13.346;2023-05-10T08:28:26;21.50;41.90
34776;DHT22;20989;52.566;13.346;2023-05-10T08:31:27;21.50;41.80
34776;DHT22;20989;52.566;13.346;2023-05-10T08:34:28;21.50;41.70
34776;DHT22;20989;52.566;13.346;2023-05-10T08:37:30;21.50;42.00
34776;DHT22;20989;52.566;13.346;2023-05-10T08:40:30;21.50;42.00
34776;DHT22;20989;52.566;13.346;2023-05-10T08:43:32;21.50;42.00
34776;DHT22;20989;52.566;13.346;2023-05-10T08:46:34;21.50;42.00
34776;DHT22;20989;52.566;13.346;2023-05-10T08:49:39;21.40;41.80
34776;DHT22;20989;52.566;13.346;2023-05-10T08:52:41;21.50;41.90
34776;DHT22;20989;52.566;13.346;2023-05-10T08:55:42;21.50;41.90
34776;DHT22;20989;52.566;13.346;2023-05-10T08:58:43;21.50;41.70
34776;DHT22;20989;52.566;13.346;2023-05-10T09:01:45;21.50;41.70
34776;DHT22;20989;52.566;13.346;2023-05-10T09:04:48;21.50;41.80
34776;DHT22;20989;52.566;13.346;2023-05-10T09:07:49;21.50;42.00
34776;DHT22;20989;52.566;13.346;2023-05-10T09:10:50;21.50;41.90
34776;DHT22;20989;52.566;13.346;2023-05-10T09:13:51;21.50;41.90
34776;DHT22;20989;52.566;13.346;2023-05-10T09:16:53;21.50;42.10
34776;DHT22;20989;52.566;13.346;2023-05-10T09:20:03;21.50;42.10
34776;DHT22;20989;52.566;13.346;2023-05-10T09:23:04;21.50;41.90
34776;DHT22;20989;52.566;13.346;2023-05-10T09:26:05;21.50;42.10
34776;DHT22;20989;52.566;13.346;2023-05-10T09:29:06;21.50;41.90
34776;DHT22;20989;52.566;13.346;2023-05-10T09:32:08;21.50;41.80
34776;DHT22;20989;52.566;13.346;2023-05-10T09:35:21;21.50;42.10
34776;DHT22;20989;52.566;13.346;2023-05-10T09:38:22;21.50;41.90
34776;DHT22;20989;52.566;13.346;2023-05-10T09:41:23;21.50;42.20
34776;DHT22;20989;52.566;13.346;2023-05-10T09:44:25;21.60;42.00
34776;DHT22;20989;52.566;13.346;2023-05-10T09:47:26;21.60;41.70
34776;DHT22;20989;52.566;13.346;2023-05-10T09:50:28;21.60;41.70
34776;DHT22;20989;52.566;13.346;2023-05-10T09:53:29;21.60;41.90
34776;DHT22;20989;52.566;13.346;2023-05-10T09:56:33;21.50;42.00
34776;DHT22;20989;52.566;13.346;2023-05-10T09:59:35;21.60;42.20
34776;DHT22;20989;52.566;13.346;2023-05-10T10:02:36;21.60;42.00
34776;DHT22;20989;52.566;13.346;2023-05-10T10:05:40;21.60;42.00
34776;DHT22;20989;52.566;13.346;2023-05-10T10:08:42;21.60;41.90
34776;DHT22;20989;52.566;13.346;2023-05-10T10:11:43;21.70;42.00
34776;DHT22;20989;52.566;13.346;2023-05-10T10:14:45;21.70;41.50
34776;DHT22;20989;52.566;13.346;2023-05-10T10:17:48;21.70;41.70
34776;DHT22;20989;52.566;13.346;2023-05-10T10:20:49;21.80;41.50
34776;DHT22;20989;52.566;13.346;2023-05-10T10:23:51;21.90;41.60
34776;DHT22;20989;52.566;13.346;2023-05-10T10:26:55;21.90;41.60
34776;DHT22;20989;52.566;13.346;2023-05-10T10:36:50;22.00;41.60
34776;DHT22;20989;52.566;13.346;2023-05-10T10:39:51;22.00;41.80
34776;DHT22;20989;52.566;13.346;2023-05-10T10:42:52;22.00;41.70
34776;DHT22;20989;52.566;13.346;2023-05-10T10:46:13;22.10;41.40
34776;DHT22;20989;52.566;13.346;2023-05-10T10:49:14;22.10;41.40
34776;DHT22;20989;52.566;13.346;2023-05-10T10:52:30;22.20;41.50
34776;DHT22;20989;52.566;13.346;2023-05-10T10:55:34;22.20;41.50
34776;DHT22;20989;52.566;13.346;2023-05-10T10:58:36;22.10;41.80
34776;DHT22;20989;52.566;13.346;2023-05-10T11:01:41;22.10;41.80
34776;DHT22;20989;52.566;13.346;2023-05-10T11:04:45;22.20;41.70
34776;DHT22;20989;52.566;13.346;2023-05-10T11:07:55;22.20;41.60
34776;DHT22;20989;52.566;13.346;2023-05-10T11:14:04;22.30;41.60
34776;DHT22;20989;52.566;13.346;2023-05-10T11:17:27;22.30;41.60
34776;DHT22;20989;52.566;13.346;2023-05-10T11:20:28;22.30;41.60
34776;DHT22;20989;52.566;13.346;2023-05-10T11:26:40;22.20;42.10
34776;DHT22;20989;52.566;13.346;2023-05-10T11:29:43;22.20;42.20
34776;DHT22;20989;52.566;13.346;2023-05-10T11:32:44;22.20;42.20
34776;DHT22;20989;52.566;13.346;2023-05-10T11:35:45;22.30;42.10
34776;DHT22;20989;52.566;13.346;2023-05-10T11:38:47;22.30;41.90
34776;DHT22;20989;52.566;13.346;2023-05-10T11:41:49;22.50;42.00
34776;DHT22;20989;52.566;13.346;2023-05-10T11:44:50;22.50;41.90
34776;DHT22;20989;52.566;13.346;2023-05-10T11:47:51;22.60;41.70
34776;DHT22;20989;52.566;13.346;2023-05-10T11:50:52;22.60;42.20
34776;DHT22;20989;52.566;13.346;2023-05-10T11:53:56;22.60;42.10
34776;DHT22;20989;52.566;13.346;2023-05-10T11:56:57;22.70;41.90
34776;DHT22;20989;52.566;13.346;2023-05-10T11:59:58;22.70;41.70
34776;DHT22;20989;52.566;13.346;2023-05-10T12:03:00;22.60;41.90
34776;DHT22;20989;52.566;13.346;2023-05-10T12:06:02;22.60;41.90
34776;DHT22;20989;52.566;13.346;2023-05-10T12:09:06;22.60;42.10
34776;DHT22;20989;52.566;13.346;2023-05-10T12:12:08;22.70;42.00
34776;DHT22;20989;52.566;13.346;2023-05-10T12:15:27;22.80;42.20
34776;DHT22;20989;52.566;13.346;2023-05-10T12:18:28;22.80;42.00
34776;DHT22;20989;52.566;13.346;2023-05-10T12:21:29;22.80;42.70
34776;DHT22;20989;52.566;13.346;2023-05-10T12:24:34;22.80;42.40
34776;DHT22;20989;52.566;13.346;2023-05-10T12:27:36;22.80;42.40
34776;DHT22;20989;52.566;13.346;2023-05-10T12:30:37;22.90;42.40
34776;DHT22;20989;52.566;13.346;2023-05-10T12:33:42;22.90;42.40
34776;DHT22;20989;52.566;13.346;2023-05-10T12:36:43;22.90;42.50
34776;DHT22;20989;52.566;13.346;2023-05-10T12:39:44;22.90;42.30
34776;DHT22;20989;52.566;13.346;2023-05-10T12:42:46;22.80;42.50
34776;DHT22;20989;52.566;13.346;2023-05-10T12:45:47;22.80;42.60
34776;DHT22;20989;52.566;13.346;2023-05-10T12:48:49;22.80;42.30
34776;DHT22;20989;52.566;13.346;2023-05-10T12:51:55;22.80;42.30
34776;DHT22;20989;52.566;13.346;2023-05-10T12:54:56;22.80;42.30
34776;DHT22;20989;52.566;13.346;2023-05-10T12:57:57;22.90;42.40
34776;DHT22;20989;52.566;13.346;2023-05-10T13:01:01;22.90;42.30
34776;DHT22;20989;52.566;13.346;2023-05-10T13:04:02;22.90;42.30
34776;DHT22;20989;52.566;13.346;2023-05-10T13:07:04;22.80;42.30
34776;DHT22;20989;52.566;13.346;2023-05-10T13:10:06;22.80;42.30
34776;DHT22;20989;52.566;13.346;2023-05-10T13:13:08;22.90;42.40
34776;DHT22;20989;52.566;13.346;2023-05-10T13:16:09;22.90;42.30
34776;DHT22;20989;52.566;13.346;2023-05-10T13:19:10;22.90;42.30
34776;DHT22;20989;52.566;13.346;2023-05-10T13:22:11;22.90;42.30
34776;DHT22;20989;52.566;13.346;2023-05-10T13:25:13;22.90;42.40
34776;DHT22;20989;52.566;13.346;2023-05-10T13:28:14;22.90;42.70
34776;DHT22;20989;52.566;13.346;2023-05-10T13:31:15;22.90;42.40
34776;DHT22;20989;52.566;13.346;2023-05-10T13:34:16;22.90;42.30
34776;DHT22;20989;52.566;13.346;2023-05-10T13:37:17;22.90;42.70
34776;DHT22;20989;52.566;13.346;2023-05-10T13:40:17;22.90;42.40
34776;DHT22;20989;52.566;13.346;2023-05-10T13:43:19;22.90;42.40
34776;DHT22;20989;52.566;13.346;2023-05-10T13:46:19;22.90;42.90
34776;DHT22;20989;52.566;13.346;2023-05-10T13:49:20;22.90;42.20
34776;DHT22;20989;52.566;13.346;2023-05-10T13:52:21;23.00;42.40
34776;DHT22;20989;52.566;13.346;2023-05-10T13:55:22;23.00;42.60
34776;DHT22;20989;52.566;13.346;2023-05-10T13:58:23;23.00;42.60
34776;DHT22;20989;52.566;13.346;2023-05-10T14:01:24;23.00;43.00
34776;DHT22;20989;52.566;13.346;2023-05-10T14:04:25;23.20;42.50
34776;DHT22;20989;52.566;13.346;2023-05-10T14:07:25;23.10;42.70
34776;DHT22;20989;52.566;13.346;2023-05-10T14:10:26;23.10;42.50
34776;DHT22;20989;52.566;13.346;2023-05-10T14:13:27;23.10;42.60
34776;DHT22;20989;52.566;13.346;2023-05-10T14:16:28;23.20;42.50
34776;DHT22;20989;52.566;13.346;2023-05-10T14:19:29;23.10;42.50
34776;DHT22;20989;52.566;13.346;2023-05-10T14:22:32;23.10;42.60
34776;DHT22;20989;52.566;13.346;2023-05-10T14:25:33;23.10;42.50
34776;DHT22;20989;52.566;13.346;2023-05-10T14:28:35;23.10;42.40
34776;DHT22;20989;52.566;13.346;2023-05-10T14:31:35;23.10;42.50
34776;DHT22;20989;52.566;13.346;2023-05-10T14:34:36;23.10;42.60
34776;DHT22;20989;52.566;13.346;2023-05-10T14:37:37;23.10;42.40
34776;DHT22;20989;52.566;13.346;2023-05-10T14:40:38;23.20;41.60
34776;DHT22;20989;52.566;13.346;2023-05-10T14:43:38;23.20;41.40
34776;DHT22;20989;52.566;13.346;2023-05-10T14:46:39;23.20;41.00
34776;DHT22;20989;52.566;13.346;2023-05-10T14:49:40;23.20;41.20
34776;DHT22;20989;52.566;13.346;2023-05-10T14:52:41;23.10;41.40
34776;DHT22;20989;52.566;13.346;2023-05-10T14:55:42;23.10;41.50
34776;DHT22;20989;52.566;13.346;2023-05-10T14:58:43;23.10;41.50
34776;DHT22;20989;52.566;13.346;2023-05-10T15:01:43;23.10;41.60
34776;DHT22;20989;52.566;13.346;2023-05-10T15:04:44;23.20;41.60
34776;DHT22;20989;52.566;13.346;2023-05-10T15:07:45;23.20;41.70
34776;DHT22;20989;52.566;13.346;2023-05-10T15:10:46;23.20;41.70
34776;DHT22;20989;52.566;13.346;2023-05-10T15:13:48;23.20;41.70
34776;DHT22;20989;52.566;13.346;2023-05-10T15:16:49;23.20;41.80
34776;DHT22;20989;52.566;13.346;2023-05-10T15:19:49;23.20;41.80
34776;DHT22;20989;52.566;13.346;2023-05-10T15:22:50;23.20;41.90
34776;DHT22;20989;52.566;13.346;2023-05-10T15:25:51;23.20;41.90
34776;DHT22;20989;52.566;13.346;2023-05-10T15:28:55;23.20;41.80
34776;DHT22;20989;52.566;13.346;2023-05-10T15:31:56;23.20;41.90
34776;DHT22;20989;52.566;13.346;2023-05-10T15:34:57;23.20;42.00
34776;DHT22;20989;52.566;13.346;2023-05-10T15:37:58;23.10;42.00
34776;DHT22;20989;52.566;13.346;2023-05-10T15:40:58;23.10;42.00
34776;DHT22;20989;52.566;13.346;2023-05-10T15:43:59;23.10;42.10
34776;DHT22;20989;52.566;13.346;2023-05-10T15:47:01;23.10;42.60
34776;DHT22;20989;52.566;13.346;2023-05-10T15:50:03;23.10;42.10
34776;DHT22;20989;52.566;13.346;2023-05-10T15:53:03;23.10;42.10
34776;DHT22;20989;52.566;13.346;2023-05-10T15:56:05;23.10;42.10
34776;DHT22;20989;52.566;13.346;2023-05-10T15:59:05;23.10;42.10
34776;DHT22;20989;52.566;13.346;2023-05-10T16:02:11;23.10;42.20
34776;DHT22;20989;52.566;13.346;2023-05-10T16:05:12;23.10;42.20
34776;DHT22;20989;52.566;13.346;2023-05-10T16:08:13;23.00;42.10
34776;DHT22;20989;52.566;13.346;2023-05-10T16:11:14;23.10;42.20
34776;DHT22;20989;52.566;13.346;2023-05-10T16:14:16;23.10;42.20
34776;DHT22;20989;52.566;13.346;2023-05-10T16:17:17;23.00;42.20
34776;DHT22;20989;52.566;13.346;2023-05-10T16:20:19;23.00;42.20
34776;DHT22;20989;52.566;13.346;2023-05-10T16:23:20;23.00;42.20
34776;DHT22;20989;52.566;13.346;2023-05-10T16:26:21;23.00;42.20
34776;DHT22;20989;52.566;13.346;2023-05-10T16:29:21;23.00;42.20
34776;DHT22;20989;52.566;13.346;2023-05-10T16:32:22;23.00;42.30
34776;DHT22;20989;52.566;13.346;2023-05-10T16:35:23;23.00;42.20
34776;DHT22;20989;52.566;13.346;2023-05-10T16:38:23;23.00;42.20
34776;DHT22;20989;52.566;13.346;2023-05-10T16:41:24;23.00;42.30
34776;DHT22;20989;52.566;13.346;2023-05-10T16:44:25;23.00;42.20
34776;DHT22;20989;52.566;13.346;2023-05-10T16:47:26;23.00;42.20
34776;DHT22;20989;52.566;13.346;2023-05-10T16:50:27;23.00;42.30
34776;DHT22;20989;52.566;13.346;2023-05-10T16:53:27;23.00;42.30
34776;DHT22;20989;52.566;13.346;2023-05-10T16:56:29;23.00;42.30
34776;DHT22;20989;52.566;13.346;2023-05-10T16:59:30;23.00;43.50
34776;DHT22;20989;52.566;13.346;2023-05-10T17:02:31;23.10;44.80
34776;DHT22;20989;52.566;13.346;2023-05-10T17:05:31;23.30;44.20
34776;DHT22;20989;52.566;13.346;2023-05-10T17:08:32;23.30;44.80
34776;DHT22;20989;52.566;13.346;2023-05-10T17:11:33;23.20;45.20
34776;DHT22;20989;52.566;13.346;2023-05-10T17:14:34;23.10;45.20
34776;DHT22;20989;52.566;13.346;2023-05-10T17:17:34;23.00;45.80
34776;DHT22;20989;52.566;13.346;2023-05-10T17:20:35;22.90;45.80
34776;DHT22;20989;52.566;13.346;2023-05-10T17:23:36;23.00;45.30
34776;DHT22;20989;52.566;13.346;2023-05-10T17:26:37;23.10;44.40
34776;DHT22;20989;52.566;13.346;2023-05-10T17:29:37;23.20;44.40
34776;DHT22;20989;52.566;13.346;2023-05-10T17:32:38;23.20;44.40
34776;DHT22;20989;52.566;13.346;2023-05-10T17:35:39;23.20;44.20
34776;DHT22;20989;52.566;13.346;2023-05-10T17:38:39;23.20;44.10
34776;DHT22;20989;52.566;13.346;2023-05-10T17:41:40;23.20;44.30
34776;DHT22;20989;52.566;13.346;2023-05-10T17:44:41;23.30;44.40
34776;DHT22;20989;52.566;13.346;2023-05-10T17:47:42;23.30;44.20
34776;DHT22;20989;52.566;13.346;2023-05-10T17:50:43;23.30;44.10
34776;DHT22;20989;52.566;13.346;2023-05-10T17:53:43;23.20;44.10
34776;DHT22;20989;52.566;13.346;2023-05-10T17:56:44;23.30;44.00
34776;DHT22;20989;52.566;13.346;2023-05-10T17:59:46;23.20;44.00
34776;DHT22;20989;52.566;13.346;2023-05-10T18:02:46;23.20;44.30
34776;DHT22;20989;52.566;13.346;2023-05-10T18:05:47;23.20;44.10
34776;DHT22;20989;52.566;13.346;2023-05-10T18:08:48;23.20;44.20
34776;DHT22;20989;52.566;13.346;2023-05-10T18:11:49;23.20;44.10
34776;DHT22;20989;52.566;13.346;2023-05-10T18:14:50;23.20;43.90
34776;DHT22;20989;52.566;13.346;2023-05-10T18:17:51;23.20;43.80
34776;DHT22;20989;52.566;13.346;2023-05-10T18:20:52;23.30;44.00
34776;DHT22;20989;52.566;13.346;2023-05-10T18:23:56;23.20;44.10
34776;DHT22;20989;52.566;13.346;2023-05-10T18:26:56;23.20;44.20
34776;DHT22;20989;52.566;13.346;2023-05-10T18:29:57;23.10;44.20
34776;DHT22;20989;52.566;13.346;2023-05-10T18:32:58;23.10;44.20
34776;DHT22;20989;52.566;13.346;2023-05-10T18:35:59;23.10;44.20
34776;DHT22;20989;52.566;13.346;2023-05-10T18:39:00;23.00;44.10
34776;DHT22;20989;52.566;13.346;2023-05-10T18:42:00;23.00;44.10
34776;DHT22;20989;52.566;13.346;2023-05-10T18:45:02;23.00;44.10
34776;DHT22;20989;52.566;13.346;2023-05-10T18:48:03;23.00;44.10
34776;DHT22;20989;52.566;13.346;2023-05-10T18:51:03;23.00;44.20
34776;DHT22;20989;52.566;13.346;2023-05-10T18:54:04;23.00;44.10
34776;DHT22;20989;52.566;13.346;2023-05-10T18:57:05;23.00;44.10
34776;DHT22;20989;52.566;13.346;2023-05-10T19:00:10;23.00;44.10
34776;DHT22;20989;52.566;13.346;2023-05-10T19:03:11;23.00;44.10
34776;DHT22;20989;52.566;13.346;2023-05-10T19:06:12;23.00;44.10
34776;DHT22;20989;52.566;13.346;2023-05-10T19:09:12;22.90;44.10
34776;DHT22;20989;52.566;13.346;2023-05-10T19:12:13;22.90;44.10
34776;DHT22;20989;52.566;13.346;2023-05-10T19:15:14;22.90;44.10
34776;DHT22;20989;52.566;13.346;2023-05-10T19:18:15;22.90;44.10
34776;DHT22;20989;52.566;13.346;2023-05-10T19:21:16;22.90;44.10
34776;DHT22;20989;52.566;13.346;2023-05-10T19:24:16;22.90;44.10
34776;DHT22;20989;52.566;13.346;2023-05-10T19:27:19;22.90;44.10